Terminal Aerodrome Forecast
Issued by NWS Wilmington, OH

Current Version | Previous Version | Text Only | Print | Product List | Glossary Off
Versions: 1 2 3 4 5 6 7 8 9 10 11 12 13 14 15 16 17 18 19 20 21 22 23 24 25 26 27 28

867
FTUS41 KILN 161738
TAFILN
TAF
KILN 161738Z 1618/1718 15005KT 6SM BR VCSH OVC006
     FM170400 14006KT 2SM -SHRA BR OVC004
     FM170800 18008KT 2SM -SHRA BR OVC006 WS020/20040KT
     FM171600 21012G20KT P6SM BKN020 OVC080=

USA.gov is the U.S. government's official web portal to all federal, state and local government web resources and services.